Time;durP1;ratioP1;P1;durP2;ratioP2;P2;SDS_P1;SDS_P2;PMS_P1;PMS_P2;Temp;Humidity;BMP_temperature;BMP_pressure;BME280_temperature;BME280_humidity;BME280_pressure;Samples;Min_cycle;Max_cycle;Signal;HPM_P1;HPM_P2
2021/04/17 00:00:17;;;;;;;4.80;1.47;;;;;;;5.05;60.72;101695.56;5035031;28;20675;-68
2021/04/17 00:02:42;;;;;;;2.13;1.23;;;;;;;5.06;60.06;101694.66;5034964;28;20579;-68
2021/04/17 00:05:10;;;;;;;9.53;2.00;;;;;;;4.97;60.79;101687.75;5033517;28;20230;-68
2021/04/17 00:07:36;;;;;;;3.13;1.37;;;;;;;4.93;61.44;101687.81;5034443;28;20576;-68
2021/04/17 00:10:01;;;;;;;4.43;1.60;;;;;;;4.91;61.97;101679.91;5033381;28;20227;-68
2021/04/17 00:12:26;;;;;;;4.90;1.73;;;;;;;4.93;61.43;101679.88;5033408;28;20177;-67
2021/04/17 00:14:52;;;;;;;3.47;1.40;;;;;;;4.89;61.61;101675.53;5034662;28;20714;-68
2021/04/17 00:17:19;;;;;;;3.70;1.40;;;;;;;4.89;61.82;101676.41;5034381;28;20275;-68
2021/04/17 00:19:47;;;;;;;2.90;1.30;;;;;;;4.92;61.78;101668.44;5034499;28;20176;-67
2021/04/17 00:22:13;;;;;;;6.30;1.67;;;;;;;4.86;62.46;101675.59;5033300;28;20183;-67
2021/04/17 00:24:38;;;;;;;3.13;1.33;;;;;;;4.89;62.44;101671.13;5033411;28;20548;-68
2021/04/17 00:27:05;;;;;;;5.13;1.50;;;;;;;4.85;62.70;101676.50;5033337;28;20203;-68
2021/04/17 00:29:31;;;;;;;3.27;1.47;;;;;;;4.85;62.17;101668.56;5033106;28;20172;-68
2021/04/17 00:31:57;;;;;;;3.93;1.40;;;;;;;4.84;63.17;101667.69;5033531;28;20522;-68
2021/04/17 00:34:22;;;;;;;4.10;1.67;;;;;;;4.78;63.32;101662.47;5033357;28;20184;-67
2021/04/17 00:36:47;;;;;;;1.97;1.30;;;;;;;4.75;63.63;101666.94;5034639;28;20192;-67
2021/04/17 00:39:13;;;;;;;2.77;1.23;;;;;;;4.78;63.57;101662.47;5032861;28;20187;-67
2021/04/17 00:41:38;;;;;;;5.57;1.30;;;;;;;4.77;63.15;101665.13;5032471;28;20226;-67
2021/04/17 00:44:04;;;;;;;3.63;1.67;;;;;;;4.75;63.36;101659.00;5033858;28;20615;-67
2021/04/17 00:46:30;;;;;;;5.13;1.43;;;;;;;4.78;63.74;101664.25;5032434;28;20766;-67
2021/04/17 00:48:56;;;;;;;3.87;1.77;;;;;;;4.71;63.66;101659.06;5034358;28;20502;-67
2021/04/17 00:51:21;;;;;;;6.97;1.53;;;;;;;4.68;63.61;101664.38;5032304;28;20203;-67
2021/04/17 00:53:46;;;;;;;3.70;1.67;;;;;;;4.68;63.83;101664.38;5033633;28;20184;-67
2021/04/17 00:56:12;;;;;;;4.03;1.67;;;;;;;4.69;64.30;101660.84;5032430;28;20226;-67
2021/04/17 00:58:39;;;;;;;8.87;1.77;;;;;;;4.66;64.63;101658.25;5032628;28;20180;-68
2021/04/17 01:01:05;;;;;;;4.77;1.40;;;;;;;4.70;63.88;101656.44;5032514;28;20230;-68
2021/04/17 01:03:42;;;;;;;6.10;1.20;;;;;;;4.65;64.12;101659.16;5015684;28;20208;-68
2021/04/17 01:06:21;;;;;;;3.33;1.50;;;;;;;4.67;64.04;101660.00;5016358;28;20207;-68
2021/04/17 01:08:52;;;;;;;7.27;1.33;;;;;;;4.64;64.39;101652.13;5034026;28;20223;-68
2021/04/17 01:11:26;;;;;;;4.33;1.30;;;;;;;4.64;63.93;101652.13;5015809;28;20197;-68
2021/04/17 01:13:54;;;;;;;1.77;1.03;;;;;;;4.71;64.32;101648.47;5032619;28;20218;-67
2021/04/17 01:16:19;;;;;;;3.73;1.50;;;;;;;4.63;64.18;101644.22;5032243;28;20196;-68
2021/04/17 01:18:45;;;;;;;5.50;1.73;;;;;;;4.62;64.41;101645.97;5033763;28;20176;-68
2021/04/17 01:21:11;;;;;;;2.63;1.43;;;;;;;4.59;63.57;101643.38;5032152;28;20679;-68
2021/04/17 01:23:40;;;;;;;2.53;1.30;;;;;;;4.61;64.25;101643.38;5032478;28;20459;-68
2021/04/17 01:26:18;;;;;;;4.40;1.37;;;;;;;4.64;64.07;101638.91;5032337;28;20277;-68
2021/04/17 01:28:46;;;;;;;11.10;1.70;;;;;;;4.60;64.04;101647.78;5033172;28;20176;-68
2021/04/17 01:31:14;;;;;;;2.50;1.43;;;;;;;4.59;64.37;101639.88;5031926;28;20274;-68
2021/04/17 01:33:42;;;;;;;1.97;1.07;;;;;;;4.53;65.02;101642.63;5032044;28;20355;-69
2021/04/17 01:36:09;;;;;;;3.97;1.80;;;;;;;4.44;65.83;101638.31;5033010;28;20200;-68
2021/04/17 01:38:39;;;;;;;4.97;1.70;;;;;;;4.39;65.75;101635.75;5032016;28;20663;-68
2021/04/17 01:41:18;;;;;;;6.40;2.10;;;;;;;4.32;65.73;101633.22;5032481;28;20160;-68
2021/04/17 01:43:44;;;;;;;5.33;1.50;;;;;;;4.29;66.03;101634.13;5015649;28;20178;-68
2021/04/17 01:46:13;;;;;;;2.13;1.40;;;;;;;4.23;66.39;101634.22;5033966;28;20211;-68
2021/04/17 01:48:41;;;;;;;4.67;1.60;;;;;;;4.15;66.99;101629.94;5033233;28;20180;-68
2021/04/17 01:51:07;;;;;;;2.63;1.20;;;;;;;4.10;66.81;101639.72;5033054;28;20204;-68
2021/04/17 01:53:37;;;;;;;2.73;1.37;;;;;;;4.07;67.40;101630.91;5032104;28;20251;-68
2021/04/17 01:56:03;;;;;;;3.40;1.50;;;;;;;4.07;67.81;101636.19;5015147;28;20203;-67
2021/04/17 01:58:31;;;;;;;8.07;1.47;;;;;;;4.00;67.85;101631.88;5031568;28;20651;-67
2021/04/17 02:00:58;;;;;;;4.63;1.40;;;;;;;3.95;68.05;101628.44;5032067;28;20569;-68
2021/04/17 02:03:24;;;;;;;3.60;1.50;;;;;;;3.89;68.40;101632.94;5034086;28;20230;-68
2021/04/17 02:05:50;;;;;;;4.20;1.50;;;;;;;3.85;68.65;101639.16;5035563;28;20204;-68
2021/04/17 02:08:16;;;;;;;4.30;1.70;;;;;;;3.82;69.04;101626.84;5036131;28;20180;-68
2021/04/17 02:10:42;;;;;;;3.13;1.67;;;;;;;3.80;69.27;101628.66;5035565;28;20223;-68
2021/04/17 02:13:08;;;;;;;2.87;1.50;;;;;;;3.79;69.18;101626.91;5035891;28;20661;-68
2021/04/17 02:15:35;;;;;;;3.00;1.60;;;;;;;3.68;70.18;101628.78;5035475;28;20196;-68
2021/04/17 02:18:06;;;;;;;3.83;1.60;;;;;;;3.62;70.00;101623.56;5037054;28;20238;-68
2021/04/17 02:20:37;;;;;;;4.57;1.70;;;;;;;3.57;70.13;101618.34;5037250;28;20708;-68
2021/04/17 02:23:02;;;;;;;3.07;1.60;;;;;;;3.52;70.39;101621.94;5035638;28;20176;-68
2021/04/17 02:25:28;;;;;;;5.17;1.80;;;;;;;3.50;70.50;101626.34;5036268;28;20205;-68
2021/04/17 02:27:53;;;;;;;5.00;1.73;;;;;;;3.41;70.88;101622.94;5036605;28;20251;-68
2021/04/17 02:30:20;;;;;;;3.20;1.50;;;;;;;3.39;71.04;101621.22;5035095;28;20223;-67
2021/04/17 02:32:45;;;;;;;4.10;1.90;;;;;;;3.39;70.72;101626.50;5036387;28;20175;-68
2021/04/17 02:35:11;;;;;;;7.73;2.27;;;;;;;3.30;71.26;101622.16;5036190;28;20237;-68
2021/04/17 02:37:36;;;;;;;7.40;1.57;;;;;;;3.26;70.62;101625.72;5035207;28;20230;-68
2021/04/17 02:40:03;;;;;;;3.67;1.67;;;;;;;3.27;70.80;101623.94;5036364;28;20242;-68
2021/04/17 02:42:28;;;;;;;3.20;1.00;;;;;;;3.24;70.27;101624.88;5034976;28;20537;-68
2021/04/17 02:44:53;;;;;;;6.17;1.60;;;;;;;3.27;69.70;101622.19;5036301;28;20210;-67
2021/04/17 02:47:19;;;;;;;5.60;1.80;;;;;;;3.23;69.58;101625.75;5036014;28;20257;-67
2021/04/17 02:49:44;;;;;;;2.00;1.33;;;;;;;3.13;70.19;101621.47;5035995;28;20208;-67
2021/04/17 02:52:10;;;;;;;6.37;1.70;;;;;;;3.05;70.86;101623.31;5036340;28;20175;-68
2021/04/17 02:54:35;;;;;;;3.33;1.30;;;;;;;3.05;69.49;101616.28;5036289;28;20199;-67
2021/04/17 02:57:00;;;;;;;2.30;1.40;;;;;;;3.18;68.64;101610.88;5034692;28;20199;-67
2021/04/17 02:59:26;;;;;;;7.20;1.40;;;;;;;3.19;68.29;101615.25;5018239;28;20199;-67
2021/04/17 03:01:51;;;;;;;3.43;1.30;;;;;;;3.23;68.35;101617.84;5034543;28;20246;-67
2021/04/17 03:04:17;;;;;;;3.27;1.10;;;;;;;3.09;68.56;101623.25;5035451;28;20516;-67
2021/04/17 03:06:42;;;;;;;2.20;1.17;;;;;;;3.16;68.21;101608.25;5036186;28;20627;-67
2021/04/17 03:09:07;;;;;;;2.47;1.63;;;;;;;3.14;68.01;101616.19;5035513;28;20209;-67
2021/04/17 03:11:32;;;;;;;2.10;1.33;;;;;;;3.22;67.71;101618.72;5034180;28;20737;-67
2021/04/17 03:13:58;;;;;;;3.33;1.20;;;;;;;3.13;68.25;101613.56;5034598;28;20253;-67
2021/04/17 03:16:24;;;;;;;2.90;1.30;;;;;;;3.10;68.40;101614.47;5034057;28;20203;-67
2021/04/17 03:18:49;;;;;;;3.83;1.33;;;;;;;3.07;68.29;101610.97;5035333;28;20178;-67
2021/04/17 03:21:14;;;;;;;2.70;1.20;;;;;;;3.16;68.16;101617.91;5035588;28;20183;-67
2021/04/17 03:23:40;;;;;;;3.70;1.30;;;;;;;3.12;68.07;101614.44;5035213;28;20540;-67
2021/04/17 03:26:05;;;;;;;2.37;1.20;;;;;;;3.04;68.26;101614.53;5034002;28;20205;-67
2021/04/17 03:28:30;;;;;;;2.13;1.20;;;;;;;3.01;68.48;101619.84;5034144;28;20179;-67
2021/04/17 03:30:56;;;;;;;4.67;1.40;;;;;;;3.09;68.15;101611.84;5033994;28;20305;-67
2021/04/17 03:33:21;;;;;;;4.80;1.17;;;;;;;3.24;67.66;101614.31;5035711;28;20180;-67
2021/04/17 03:35:46;;;;;;;4.83;1.47;;;;;;;3.21;67.58;101611.69;5017491;28;20200;-67
2021/04/17 03:38:12;;;;;;;3.67;1.40;;;;;;;3.11;68.43;101610.94;5035583;28;20514;-67
2021/04/17 03:40:37;;;;;;;5.90;1.50;;;;;;;3.15;68.03;101611.78;5035068;28;20710;-67
2021/04/17 03:43:02;;;;;;;3.10;1.40;;;;;;;3.12;68.02;101609.16;5035085;28;20647;-67
2021/04/17 03:45:29;;;;;;;3.73;1.50;;;;;;;3.14;68.07;101602.13;5034795;28;20250;-67
2021/04/17 03:47:54;;;;;;;3.27;1.10;;;;;;;3.17;67.83;101607.34;5035196;28;20164;-67
2021/04/17 03:50:20;;;;;;;2.73;1.23;;;;;;;3.23;67.66;101609.06;5033607;28;20204;-67
2021/04/17 03:52:45;;;;;;;5.53;1.40;;;;;;;3.24;67.68;101609.03;5033711;28;20234;-66
2021/04/17 03:55:13;;;;;;;2.80;1.10;;;;;;;3.35;67.44;101612.44;5034688;28;20652;-68
2021/04/17 03:57:39;;;;;;;2.13;1.43;;;;;;;3.28;67.65;101615.16;5035020;28;20187;-67
2021/04/17 04:00:06;;;;;;;2.80;1.47;;;;;;;3.23;67.78;101614.31;5034966;28;20188;-68
2021/04/17 04:02:32;;;;;;;1.97;1.10;;;;;;;3.34;67.14;101609.81;5032071;28;20188;-67
2021/04/17 04:04:58;;;;;;;5.17;1.60;;;;;;;3.31;67.26;101608.06;5034730;28;20654;-68
2021/04/17 04:07:23;;;;;;;5.17;1.77;;;;;;;3.37;66.71;101612.44;5034597;28;20199;-68
2021/04/17 04:09:48;;;;;;;2.90;1.27;;;;;;;3.23;67.66;101625.75;5034491;28;20200;-68
2021/04/17 04:12:14;;;;;;;4.63;1.63;;;;;;;3.23;67.85;101627.50;5016585;28;20187;-68
2021/04/17 04:14:39;;;;;;;3.83;1.50;;;;;;;3.28;67.34;101629.22;5033526;28;20191;-68
2021/04/17 04:17:04;;;;;;;3.97;1.47;;;;;;;3.29;67.64;101630.97;5033380;28;20203;-68
2021/04/17 04:19:30;;;;;;;4.03;1.30;;;;;;;3.36;67.90;101627.41;5034366;28;20286;-68
2021/04/17 04:21:55;;;;;;;5.43;1.30;;;;;;;3.45;67.24;101631.69;5034601;28;20180;-68
2021/04/17 04:24:20;;;;;;;1.97;1.13;;;;;;;3.45;67.34;101631.69;5034290;28;20180;-66
2021/04/17 04:26:46;;;;;;;3.43;1.37;;;;;;;3.52;67.53;101637.78;5033764;28;20283;-67
2021/04/17 04:29:11;;;;;;;5.03;1.47;;;;;;;3.58;67.09;101637.69;5032705;28;20588;-67
2021/04/17 04:31:36;;;;;;;7.77;1.30;;;;;;;3.59;67.49;101640.31;5032836;28;20200;-67
2021/04/17 04:34:02;;;;;;;2.10;1.20;;;;;;;3.57;67.05;101633.31;5033138;28;20176;-67
2021/04/17 04:36:28;;;;;;;2.10;1.20;;;;;;;3.57;67.51;101635.94;5033645;28;20199;-68
2021/04/17 04:38:53;;;;;;;7.57;1.50;;;;;;;3.55;67.38;101620.13;5034183;28;20179;-68
2021/04/17 04:41:18;;;;;;;8.10;1.50;;;;;;;3.45;67.73;101622.00;5034142;28;20179;-68
2021/04/17 04:43:44;;;;;;;5.53;1.30;;;;;;;3.47;68.08;101619.34;5034618;28;20199;-68
2021/04/17 04:46:09;;;;;;;6.07;1.13;;;;;;;3.49;68.29;101620.22;5033900;28;20216;-68
2021/04/17 04:48:34;;;;;;;5.00;1.63;;;;;;;3.53;67.96;101624.56;5034261;28;20184;-68
2021/04/17 04:51:00;;;;;;;3.97;1.43;;;;;;;3.49;68.59;101614.06;5032446;28;20660;-68
2021/04/17 04:53:25;;;;;;;5.73;1.27;;;;;;;3.55;68.29;101616.63;5033568;28;20200;-68
2021/04/17 04:55:50;;;;;;;4.63;1.17;;;;;;;3.52;68.53;101616.66;5033612;28;20206;-68
2021/04/17 04:58:15;;;;;;;4.23;1.33;;;;;;;3.59;69.01;101615.69;5033948;28;20637;-68
2021/04/17 05:00:41;;;;;;;2.93;1.20;;;;;;;3.62;68.60;101615.66;5033855;28;20168;-68
2021/04/17 05:03:06;;;;;;;3.20;1.30;;;;;;;3.61;68.68;101611.25;5033667;28;20208;-68
2021/04/17 05:05:31;;;;;;;4.03;1.23;;;;;;;3.62;68.69;101613.00;5032747;28;20204;-68
2021/04/17 05:07:57;;;;;;;3.07;1.20;;;;;;;3.73;68.81;101606.72;5033608;28;20172;-68
2021/04/17 05:10:22;;;;;;;5.00;1.40;;;;;;;3.69;68.81;101605.00;5033504;28;20211;-68
2021/04/17 05:12:47;;;;;;;4.70;1.47;;;;;;;3.73;68.99;101606.72;5032305;28;20652;-68
2021/04/17 05:15:13;;;;;;;9.83;1.70;;;;;;;3.81;69.18;101614.53;5015763;28;20176;-68
2021/04/17 05:17:38;;;;;;;6.03;1.40;;;;;;;3.95;68.60;101622.28;5033612;28;20207;-68
2021/04/17 05:20:05;;;;;;;3.07;1.43;;;;;;;4.13;68.09;101621.19;5032217;28;20625;-67
2021/04/17 05:22:30;;;;;;;6.17;1.43;;;;;;;4.09;68.18;101620.34;5015787;28;20266;-67
2021/04/17 05:24:55;;;;;;;3.83;1.63;;;;;;;4.16;68.50;101626.41;5033503;28;20674;-67
2021/04/17 05:27:20;;;;;;;2.50;1.03;;;;;;;4.09;69.18;101620.34;5033342;28;20196;-67
2021/04/17 05:29:46;;;;;;;4.20;1.13;;;;;;;4.16;69.05;101629.06;5031904;28;20239;-68
2021/04/17 05:32:11;;;;;;;6.67;1.40;;;;;;;4.40;68.47;101632.19;5033388;28;20203;-68
2021/04/17 05:34:37;;;;;;;6.63;1.30;;;;;;;4.23;69.47;101638.63;5032093;28;20180;-67
2021/04/17 05:37:02;;;;;;;5.07;1.23;;;;;;;4.30;68.97;101635.00;5031425;28;20628;-67
2021/04/17 05:39:27;;;;;;;5.40;1.50;;;;;;;4.25;69.09;101627.16;5033359;28;20636;-68
2021/04/17 05:41:53;;;;;;;2.53;1.20;;;;;;;4.40;69.12;101634.84;5032412;28;20193;-68
2021/04/17 05:44:18;;;;;;;5.53;1.60;;;;;;;4.53;69.00;101630.28;5032938;28;20176;-67
2021/04/17 05:46:44;;;;;;;9.07;1.60;;;;;;;4.50;69.03;101627.66;5032744;28;20204;-67
2021/04/17 05:49:10;;;;;;;3.93;1.40;;;;;;;4.56;68.86;101624.94;5031651;28;20679;-67
2021/04/17 05:51:37;;;;;;;5.47;1.83;;;;;;;4.53;69.22;101626.75;5032037;28;20683;-68
2021/04/17 05:54:03;;;;;;;4.23;1.50;;;;;;;4.51;69.71;101629.41;5015167;28;20628;-68
2021/04/17 05:56:28;;;;;;;4.93;1.50;;;;;;;4.61;69.81;101628.38;5031822;28;20203;-68
2021/04/17 05:58:54;;;;;;;5.00;1.83;;;;;;;4.67;69.77;101630.91;5031846;28;20644;-68
2021/04/17 06:01:19;;;;;;;8.97;1.60;;;;;;;4.89;68.96;101628.81;5031737;28;20182;-68
2021/04/17 06:03:45;;;;;;;10.30;1.83;;;;;;;4.95;69.24;101620.75;5015188;28;20270;-68
2021/04/17 06:06:10;;;;;;;4.57;1.63;;;;;;;5.01;69.34;101619.78;5014984;28;20192;-68
2021/04/17 06:08:35;;;;;;;7.57;1.87;;;;;;;5.05;68.94;101618.81;5033093;28;20176;-69
2021/04/17 06:11:00;;;;;;;3.80;1.60;;;;;;;5.50;67.49;101618.84;5032797;28;20714;-67
2021/04/17 06:13:26;;;;;;;3.87;1.37;;;;;;;5.34;68.46;101618.28;5032931;28;20184;-68
2021/04/17 06:15:51;;;;;;;10.50;2.00;;;;;;;5.29;68.69;101615.72;5032712;28;20196;-68
2021/04/17 06:18:16;;;;;;;11.33;2.83;;;;;;;5.21;69.29;101628.25;5031350;28;20234;-68
2021/04/17 06:20:42;;;;;;;9.27;2.37;;;;;;;5.34;69.00;101621.81;5032611;28;20231;-68
2021/04/17 06:23:07;;;;;;;3.87;1.60;;;;;;;5.26;69.80;101615.78;5031983;28;20180;-68
2021/04/17 06:25:32;;;;;;;2.87;1.53;;;;;;;5.50;68.22;101624.16;5032757;28;20656;-68
2021/04/17 06:27:58;;;;;;;6.43;1.83;;;;;;;5.41;69.51;101624.34;5014891;28;20518;-68
2021/04/17 06:30:23;;;;;;;6.70;1.90;;;;;;;5.52;69.34;101622.34;5033060;28;20310;-68
2021/04/17 06:32:49;;;;;;;9.60;2.03;;;;;;;5.46;69.96;101633.06;5031686;28;20184;-67
2021/04/17 06:35:14;;;;;;;6.77;1.73;;;;;;;5.83;68.67;101630.56;5014932;28;20182;-67
2021/04/17 06:37:40;;;;;;;11.53;1.93;;;;;;;5.67;69.08;101624.72;5031425;28;20216;-68
2021/04/17 06:40:06;;;;;;;6.87;1.97;;;;;;;5.65;69.53;101618.56;5032108;28;20176;-68
2021/04/17 06:42:31;;;;;;;8.67;2.10;;;;;;;5.53;69.98;101624.09;5031620;28;20195;-67
2021/04/17 06:44:59;;;;;;;5.83;2.07;;;;;;;5.61;70.03;101628.38;5015169;28;20180;-68
2021/04/17 06:47:24;;;;;;;9.47;1.90;;;;;;;5.52;70.14;101617.06;5032521;28;20212;-67
2021/04/17 06:49:50;;;;;;;8.53;2.40;;;;;;;5.54;70.80;101616.13;5034218;28;20668;-67
2021/04/17 06:52:15;;;;;;;4.33;1.80;;;;;;;5.72;70.25;101622.84;5036565;28;20204;-68
2021/04/17 06:54:42;;;;;;;8.17;2.87;;;;;;;5.56;70.96;101618.72;5037805;28;20183;-68
2021/04/17 06:57:07;;;;;;;6.50;2.23;;;;;;;5.83;70.01;101622.59;5035139;28;20203;-68
2021/04/17 06:59:32;;;;;;;8.73;2.43;;;;;;;5.78;70.06;101617.41;5034908;28;20176;-68
2021/04/17 07:01:59;;;;;;;7.07;1.83;;;;;;;5.91;69.60;101629.53;5034922;28;20245;-68
2021/04/17 07:04:25;;;;;;;8.43;2.20;;;;;;;5.78;69.63;101619.19;5035953;28;20544;-68
2021/04/17 07:06:51;;;;;;;6.10;2.20;;;;;;;5.91;70.11;101626.88;5035805;28;20200;-68
2021/04/17 07:09:16;;;;;;;5.80;1.93;;;;;;;6.00;69.61;101622.31;5034520;28;20187;-68
2021/04/17 07:11:41;;;;;;;12.27;2.47;;;;;;;6.21;70.18;101629.78;5035757;28;20207;-67
2021/04/17 07:14:13;;;;;;;12.73;2.50;;;;;;;6.43;68.61;101630.16;5035617;28;20223;-66
2021/04/17 07:17:01;;;;;;;8.43;2.33;;;;;;;6.24;68.62;101627.91;5034311;28;20193;-67
2021/04/17 07:19:47;;;;;;;15.70;2.03;;;;;;;6.38;68.48;101632.94;5034604;28;20172;-68
2021/04/17 07:22:20;;;;;;;10.20;2.30;;;;;;;6.28;69.13;101626.94;5034201;28;20192;-69
2021/04/17 07:24:46;;;;;;;7.83;2.00;;;;;;;6.39;68.96;101626.72;5035754;28;20183;-67
2021/04/17 07:27:40;;;;;;;8.17;2.63;;;;;;;6.28;69.59;101637.53;5034684;28;20253;-68
2021/04/17 07:30:07;;;;;;;5.83;1.77;;;;;;;6.59;68.89;101639.50;5035368;28;20279;-68
2021/04/17 07:32:33;;;;;;;13.33;2.47;;;;;;;6.69;68.96;101645.44;5034020;28;20191;-67
2021/04/17 07:35:15;;;;;;;10.03;1.87;;;;;;;6.94;67.95;101643.06;5034471;28;20180;-67
2021/04/17 07:37:43;;;;;;;5.63;1.97;;;;;;;6.86;67.30;101644.16;5035636;28;20160;-67
2021/04/17 07:40:23;;;;;;;6.43;2.10;;;;;;;7.19;66.70;101649.53;5035313;28;20177;-68
2021/04/17 07:42:52;;;;;;;12.17;2.43;;;;;;;7.33;66.44;101638.53;5035242;28;20182;-69
2021/04/17 07:45:27;;;;;;;9.00;2.40;;;;;;;7.54;65.92;101643.25;5033796;28;20722;-67
2021/04/17 07:47:54;;;;;;;6.87;2.57;;;;;;;7.55;65.49;101642.34;5035496;28;20244;-68
2021/04/17 07:50:19;;;;;;;8.57;2.30;;;;;;;7.00;67.32;101640.25;5033680;28;20200;-68
2021/04/17 07:52:46;;;;;;;7.40;1.90;;;;;;;7.53;66.57;101655.69;5034066;28;20210;-67
2021/04/17 07:55:12;;;;;;;10.57;3.07;;;;;;;7.72;65.62;101658.69;5033707;28;20225;-68
2021/04/17 07:57:53;;;;;;;8.47;2.67;;;;;;;7.88;64.93;101659.13;5033549;28;20232;-68
2021/04/17 08:00:20;;;;;;;9.77;2.13;;;;;;;8.17;64.62;101676.88;5034447;28;20246;-68
2021/04/17 08:02:47;;;;;;;10.10;2.40;;;;;;;8.23;63.31;101674.06;5034784;28;20713;-67
2021/04/17 08:05:13;;;;;;;9.63;3.17;;;;;;;8.05;63.43;101669.28;5034783;28;20208;-68
2021/04/17 08:07:39;;;;;;;11.23;3.00;;;;;;;8.42;62.88;101675.28;5035017;28;20536;-68
2021/04/17 08:10:06;;;;;;;6.57;2.60;;;;;;;8.77;62.62;101668.84;5034160;28;20719;-68
2021/04/17 08:12:36;;;;;;;11.53;2.50;;;;;;;8.82;61.99;101671.34;5034787;28;20552;-68
2021/04/17 08:15:03;;;;;;;9.93;1.93;;;;;;;9.04;61.59;101677.72;5033463;28;20216;-68
2021/04/17 08:17:29;;;;;;;6.67;1.80;;;;;;;9.80;59.87;101668.00;5034748;28;20283;-68
2021/04/17 08:19:57;;;;;;;10.80;2.87;;;;;;;9.27;60.46;101666.28;5034709;28;20183;-69
2021/04/17 08:22:23;;;;;;;11.60;2.43;;;;;;;9.32;60.74;101669.69;5035061;28;20183;-68
2021/04/17 08:24:48;;;;;;;7.93;2.10;;;;;;;9.83;59.22;101666.09;5017037;28;20176;-68
2021/04/17 08:27:14;;;;;;;10.70;2.30;;;;;;;9.29;60.20;101672.47;5033244;28;20595;-67
2021/04/17 08:29:51;;;;;;;12.43;2.37;;;;;;;9.18;61.10;101663.94;5033488;28;20624;-69
2021/04/17 08:32:30;;;;;;;9.30;2.37;;;;;;;9.61;59.23;101662.44;5034389;28;20184;-68
2021/04/17 08:35:05;;;;;;;9.73;2.97;;;;;;;9.13;60.66;101667.69;5034618;28;20251;-69
2021/04/17 08:37:33;;;;;;;9.27;2.37;;;;;;;9.16;60.94;101656.94;5033588;28;20237;-68
2021/04/17 08:39:59;;;;;;;6.80;2.70;;;;;;;9.74;60.11;101660.22;5034634;28;20176;-68
2021/04/17 08:42:44;;;;;;;6.33;2.07;;;;;;;10.41;57.73;101669.28;5034626;28;20226;-68
2021/04/17 08:45:14;;;;;;;11.83;2.97;;;;;;;9.30;60.41;101654.69;5033786;28;20192;-68
2021/04/17 08:47:59;;;;;;;8.97;2.30;;;;;;;10.12;59.28;101667.69;5033630;28;20179;-68
2021/04/17 08:50:26;;;;;;;6.87;2.47;;;;;;;9.88;57.57;101656.13;5034527;28;20188;-68
2021/04/17 08:53:05;;;;;;;20.30;3.37;;;;;;;9.31;59.56;101656.41;5033696;28;20195;-68
2021/04/17 08:55:36;;;;;;;9.63;2.50;;;;;;;9.41;60.49;101660.50;5033742;28;20196;-68
2021/04/17 08:58:14;;;;;;;7.03;2.70;;;;;;;9.61;59.59;101660.66;5034710;28;20666;-68
2021/04/17 09:00:43;;;;;;;7.03;2.70;;;;;;;9.51;60.10;101659.25;5033715;28;20647;-68
2021/04/17 09:03:09;;;;;;;11.53;2.70;;;;;;;10.26;58.46;101656.50;5016246;28;20537;-68
2021/04/17 09:05:47;;;;;;;8.07;2.73;;;;;;;10.58;56.73;101649.91;5036077;28;20215;-67
2021/04/17 09:08:14;;;;;;;9.30;2.70;;;;;;;10.06;58.48;101646.56;5035123;28;20506;-67
2021/04/17 09:10:41;;;;;;;13.03;2.33;;;;;;;10.43;57.48;101647.84;5033628;28;20211;-68
2021/04/17 09:13:09;;;;;;;7.40;2.33;;;;;;;10.81;56.52;101644.53;5032664;28;20257;-67
2021/04/17 09:16:04;;;;;;;8.73;2.93;;;;;;;10.61;58.48;101634.63;5033709;28;20206;-68
2021/04/17 09:18:32;;;;;;;12.20;3.10;;;;;;;10.38;58.73;101639.13;5033295;28;20157;-68
2021/04/17 09:21:18;;;;;;;5.60;2.50;;;;;;;10.57;57.79;101626.81;5034400;28;20177;-68
2021/04/17 09:23:47;;;;;;;10.80;2.80;;;;;;;10.64;57.31;101630.97;5034386;28;20190;-68
2021/04/17 09:26:33;;;;;;;11.07;2.63;;;;;;;11.06;56.10;101627.44;5032354;28;20270;-67
2021/04/17 09:29:05;;;;;;;10.60;2.77;;;;;;;10.80;56.98;101626.75;5032437;28;20188;-69
2021/04/17 09:31:35;;;;;;;9.10;2.77;;;;;;;10.55;57.50;101620.66;5032763;28;20200;-68
2021/04/17 09:34:04;;;;;;;10.57;3.03;;;;;;;11.05;57.29;101623.03;5033268;28;20172;-68
2021/04/17 09:36:30;;;;;;;8.40;2.87;;;;;;;11.32;54.67;101626.34;5031847;28;20200;-68
2021/04/17 09:38:56;;;;;;;9.10;3.23;;;;;;;11.34;55.38;101613.78;5033401;28;20306;-68
2021/04/17 09:41:21;;;;;;;7.80;2.50;;;;;;;12.24;52.49;101615.03;5033026;28;20200;-67
2021/04/17 09:43:54;;;;;;;8.17;3.20;;;;;;;12.28;52.43;101611.31;5032905;28;20633;-69
2021/04/17 09:46:19;;;;;;;9.67;2.93;;;;;;;12.07;52.71;101603.34;5032917;28;20227;-68
2021/04/17 09:48:46;;;;;;;8.93;3.13;;;;;;;12.16;53.77;101610.91;5033907;28;20525;-70
2021/04/17 09:51:40;;;;;;;7.17;2.90;;;;;;;12.35;52.11;101605.56;5033072;28;20192;-68
2021/04/17 09:54:07;;;;;;;10.83;3.20;;;;;;;11.79;53.91;101606.41;5015441;28;20223;-68
2021/04/17 09:56:34;;;;;;;8.30;3.07;;;;;;;11.79;54.08;101610.88;5031551;28;20602;-68
2021/04/17 09:59:12;;;;;;;6.43;2.90;;;;;;;11.67;54.39;101606.06;5032351;28;20286;-68
2021/04/17 10:01:38;;;;;;;10.10;3.33;;;;;;;11.82;53.92;101600.91;5015565;28;20203;-67
2021/04/17 10:04:04;;;;;;;9.80;3.17;;;;;;;11.36;54.33;101594.06;5015018;28;20215;-69
2021/04/17 10:06:36;;;;;;;11.17;3.57;;;;;;;11.75;54.31;101607.47;5031916;28;20203;-69
2021/04/17 10:09:09;;;;;;;13.87;3.43;;;;;;;11.39;54.65;101593.94;5015331;28;20282;-68
2021/04/17 10:11:36;;;;;;;13.37;3.40;;;;;;;11.03;56.25;101587.50;5032940;28;20350;-68
2021/04/17 10:14:03;;;;;;;7.17;2.80;;;;;;;11.66;55.06;101588.28;5033279;28;20263;-68
2021/04/17 10:16:33;;;;;;;10.30;3.47;;;;;;;11.97;53.17;101588.66;5031242;28;20192;-68
2021/04/17 10:18:59;;;;;;;12.90;3.43;;;;;;;13.02;50.37;101579.94;5031199;28;20175;-67
2021/04/17 10:21:27;;;;;;;8.23;3.50;;;;;;;13.26;49.81;101581.38;5031488;28;20267;-68
2021/04/17 10:24:19;;;;;;;8.90;3.13;;;;;;;13.81;48.59;101586.50;5032866;28;20184;-68
2021/04/17 10:26:57;;;;;;;7.23;3.20;;;;;;;13.95;48.89;101586.59;5036455;28;20283;-68
2021/04/17 10:29:38;;;;;;;10.17;3.83;;;;;;;13.63;48.77;101590.16;5037239;28;20210;-66
2021/04/17 10:32:06;;;;;;;13.70;3.90;;;;;;;12.70;52.05;101585.13;5036792;28;20203;-67
2021/04/17 10:34:32;;;;;;;10.80;3.37;;;;;;;12.24;53.62;101590.94;5036870;28;20688;-69
2021/04/17 10:37:17;;;;;;;6.87;3.13;;;;;;;13.48;51.08;101583.81;5019180;28;20219;-68
2021/04/17 10:40:11;;;;;;;10.63;3.97;;;;;;;13.85;50.33;101585.38;5019367;28;20612;-68
2021/04/17 10:42:47;;;;;;;8.93;3.27;;;;;;;12.71;52.27;101569.91;5035524;28;20199;-68
2021/04/17 10:45:24;;;;;;;12.43;3.43;;;;;;;13.07;51.73;101569.84;5036844;28;20180;-69
2021/04/17 10:48:17;;;;;;;12.97;4.00;;;;;;;14.11;49.16;101572.31;5037213;28;20164;-69
2021/04/17 10:50:53;;;;;;;14.00;4.13;;;;;;;13.66;49.60;101569.38;5019123;28;20201;-69
2021/04/17 10:53:27;;;;;;;11.77;4.70;;;;;;;14.23;47.87;101572.50;5036753;28;20186;-68
2021/04/17 10:55:54;;;;;;;9.97;3.33;;;;;;;15.42;45.44;101568.16;5036177;28;20195;-69
2021/04/17 10:58:25;;;;;;;11.97;3.80;;;;;;;14.72;47.29;101575.09;5036437;28;20270;-68
2021/04/17 11:00:56;;;;;;;7.00;3.07;;;;;;;15.44;45.46;101568.06;5034946;28;20590;-68
2021/04/17 11:03:23;;;;;;;10.20;3.53;;;;;;;16.45;43.50;101579.56;5036957;28;20164;-69
2021/04/17 11:05:48;;;;;;;10.67;3.80;;;;;;;15.19;45.32;101561.50;5036305;28;20663;-69
2021/04/17 11:08:21;;;;;;;13.77;3.40;;;;;;;14.75;46.88;101571.34;5035220;28;20182;-67
2021/04/17 11:10:46;;;;;;;9.93;3.30;;;;;;;16.63;42.76;101560.44;5036319;28;20205;-68
2021/04/17 11:13:27;;;;;;;12.23;3.13;;;;;;;17.14;42.84;101565.06;5036062;28;20180;-68
2021/04/17 11:15:52;;;;;;;17.43;3.53;;;;;;;18.62;38.84;101573.34;5035839;28;20188;-68
2021/04/17 11:18:19;;;;;;;12.10;3.43;;;;;;;17.64;40.43;101570.56;5035884;28;20179;-68
2021/04/17 11:20:52;;;;;;;8.57;3.40;;;;;;;20.56;36.49;101579.66;5034507;28;20204;-68
2021/04/17 11:23:47;;;;;;;8.93;2.97;;;;;;;20.47;35.22;101575.00;5034860;28;20169;-69
2021/04/17 11:26:19;;;;;;;12.13;3.53;;;;;;;18.35;38.26;101575.34;5034565;28;20196;-69
2021/04/17 11:28:50;;;;;;;13.73;3.70;;;;;;;17.03;41.08;101558.63;5036041;28;20168;-67
2021/04/17 11:31:18;;;;;;;10.47;3.43;;;;;;;18.96;38.18;101568.94;5033932;28;20276;-67
2021/04/17 11:33:45;;;;;;;9.87;3.20;;;;;;;19.76;36.70;101574.44;5035519;28;20180;-67